createdAt,value
2022-10-24T00:01:47.265Z,7.07
2022-10-24T00:04:39.574Z,7.00
2022-10-24T00:07:25.452Z,8.20
2022-10-24T00:10:14.267Z,6.88
2022-10-24T00:12:59.515Z,6.67
2022-10-24T00:15:48.606Z,6.78
2022-10-24T00:18:34.382Z,5.63
2022-10-24T00:21:20.490Z,6.30
2022-10-24T00:24:07.099Z,6.57
2022-10-24T00:26:52.748Z,6.07
2022-10-24T00:29:38.038Z,6.80
2022-10-24T00:32:23.497Z,6.97
2022-10-24T00:35:10.106Z,6.53
2022-10-24T00:37:55.269Z,7.65
2022-10-24T00:40:41.561Z,6.75
2022-10-24T00:43:27.093Z,7.47
2022-10-24T00:46:13.350Z,7.30
2022-10-24T00:48:58.560Z,7.25
2022-10-24T00:51:45.193Z,7.25
2022-10-24T00:54:30.728Z,7.53
2022-10-24T00:57:40.059Z,7.30
2022-10-24T01:00:29.684Z,6.78
2022-10-24T01:03:15.274Z,7.30
2022-10-24T01:06:03.188Z,6.88
2022-10-24T01:09:06.226Z,7.05
2022-10-24T01:12:16.523Z,7.35
2022-10-24T01:15:30.005Z,6.55
2022-10-24T01:18:23.428Z,7.78
2022-10-24T01:21:32.887Z,7.32
2022-10-24T01:24:40.215Z,6.72
2022-10-24T01:27:31.852Z,6.95
2022-10-24T01:30:18.585Z,7.13
2022-10-24T01:33:11.294Z,6.97
2022-10-24T01:36:07.297Z,6.40
2022-10-24T01:38:59.485Z,6.22
2022-10-24T01:41:47.062Z,6.90
2022-10-24T01:44:42.605Z,6.38
2022-10-24T01:47:37.498Z,6.13
2022-10-24T01:50:26.061Z,6.30
2022-10-24T01:53:12.773Z,6.55
2022-10-24T01:55:59.253Z,6.78
2022-10-24T01:58:45.651Z,6.63
2022-10-24T02:01:32.287Z,5.75
2022-10-24T02:04:17.785Z,5.50
2022-10-24T02:07:06.990Z,5.70
2022-10-24T02:10:02.741Z,6.05
2022-10-24T02:12:54.023Z,5.95
2022-10-24T02:15:47.049Z,6.13
2022-10-24T02:18:33.354Z,5.95
2022-10-24T02:21:37.305Z,6.88
2022-10-24T02:25:01.275Z,7.13
2022-10-24T02:28:01.115Z,6.15
2022-10-24T02:30:52.330Z,5.60
2022-10-24T02:33:41.344Z,6.20
2022-10-24T02:36:29.643Z,5.80
2022-10-24T02:39:16.745Z,6.25
2022-10-24T02:42:04.492Z,5.70
2022-10-24T02:44:49.815Z,5.90
2022-10-24T02:47:35.776Z,5.80
2022-10-24T02:50:21.803Z,6.80
2022-10-24T02:53:09.979Z,5.97
2022-10-24T02:55:55.501Z,5.75
2022-10-24T02:58:40.667Z,7.32
2022-10-24T03:01:26.136Z,5.97
2022-10-24T03:04:11.325Z,6.20
2022-10-24T03:06:56.570Z,5.68
2022-10-24T03:09:42.097Z,5.78
2022-10-24T03:12:27.689Z,5.72
2022-10-24T03:15:13.553Z,5.78
2022-10-24T03:17:58.869Z,5.22
2022-10-24T03:20:44.010Z,5.25
2022-10-24T03:23:29.570Z,5.25
2022-10-24T03:26:14.842Z,4.85
2022-10-24T03:29:00.243Z,4.78
2022-10-24T03:31:46.129Z,5.15
2022-10-24T03:34:32.206Z,5.30
2022-10-24T03:37:17.615Z,6.25
2022-10-24T03:40:03.535Z,5.20
2022-10-24T03:42:49.043Z,5.63
2022-10-24T03:45:34.552Z,5.50
2022-10-24T03:48:19.595Z,5.25
2022-10-24T03:51:05.334Z,4.60
2022-10-24T03:53:50.482Z,5.70
2022-10-24T03:56:35.883Z,5.47
2022-10-24T03:59:23.078Z,5.38
2022-10-24T04:02:08.572Z,4.68
2022-10-24T04:04:53.848Z,4.93
2022-10-24T04:07:39.917Z,5.35
2022-10-24T04:10:25.255Z,5.38
2022-10-24T04:13:11.002Z,5.60
2022-10-24T04:15:56.113Z,4.57
2022-10-24T04:18:41.562Z,4.63
2022-10-24T04:21:27.077Z,4.88
2022-10-24T04:24:12.513Z,5.38
2022-10-24T04:26:57.586Z,5.40
2022-10-24T04:29:42.788Z,5.55
2022-10-24T04:32:28.119Z,4.78
2022-10-24T04:35:14.167Z,5.28
2022-10-24T04:37:59.611Z,5.43
2022-10-24T04:40:50.429Z,4.97
2022-10-24T04:43:35.794Z,4.22
2022-10-24T04:46:21.377Z,5.15
2022-10-24T04:49:06.670Z,4.78
2022-10-24T04:51:51.825Z,5.20
2022-10-24T04:54:37.520Z,4.35
2022-10-24T04:57:25.198Z,5.03
2022-10-24T05:00:11.189Z,5.32
2022-10-24T05:02:58.957Z,4.40
2022-10-24T05:05:45.115Z,5.30
2022-10-24T05:08:30.464Z,5.57
2022-10-24T05:11:16.009Z,5.32
2022-10-24T05:14:01.251Z,5.00
2022-10-24T05:16:48.406Z,4.78
2022-10-24T05:19:33.729Z,5.57
2022-10-24T05:22:19.053Z,5.20
2022-10-24T05:25:04.801Z,5.25
2022-10-24T05:27:49.932Z,5.28
2022-10-24T05:30:35.226Z,4.75
2022-10-24T05:33:20.807Z,5.30
2022-10-24T05:36:06.899Z,5.28
2022-10-24T05:38:52.171Z,7.35
2022-10-24T05:41:37.601Z,6.55
2022-10-24T05:44:23.074Z,5.80
2022-10-24T05:47:08.200Z,4.40
2022-10-24T05:49:53.462Z,5.00
2022-10-24T05:52:44.719Z,5.25
2022-10-24T05:55:33.561Z,5.10
2022-10-24T05:58:21.308Z,5.72
2022-10-24T06:01:06.830Z,5.18
2022-10-24T06:03:52.056Z,5.50
2022-10-24T06:06:42.855Z,5.63
2022-10-24T06:09:27.931Z,5.65
2022-10-24T06:12:13.635Z,5.15
2022-10-24T06:15:00.177Z,5.25
2022-10-24T06:17:45.945Z,5.15
2022-10-24T06:20:31.131Z,6.15
2022-10-24T06:23:16.586Z,6.35
2022-10-24T06:26:02.303Z,6.50
2022-10-24T06:28:47.658Z,6.85
2022-10-24T06:31:35.441Z,7.28
2022-10-24T06:37:10.947Z,6.05
2022-10-24T06:39:56.135Z,6.65
2022-10-24T06:42:41.622Z,6.05
2022-10-24T06:45:27.109Z,5.95
2022-10-24T06:48:12.829Z,5.40
2022-10-24T06:50:58.033Z,5.15
2022-10-24T06:53:43.445Z,6.13
2022-10-24T06:56:28.659Z,5.10
2022-10-24T06:59:16.222Z,5.20
2022-10-24T07:02:04.936Z,5.78
2022-10-24T07:04:51.225Z,5.75
2022-10-24T07:07:36.728Z,5.97
2022-10-24T07:10:22.284Z,6.43
2022-10-24T07:13:08.033Z,5.97
2022-10-24T07:15:56.371Z,5.95
2022-10-24T07:18:42.813Z,6.47
2022-10-24T07:21:30.446Z,5.60
2022-10-24T07:24:15.843Z,5.07
2022-10-24T07:27:02.338Z,5.55
2022-10-24T07:29:49.078Z,6.50
2022-10-24T07:32:35.483Z,5.68
2022-10-24T07:35:25.673Z,5.45
2022-10-24T07:38:18.832Z,5.88
2022-10-24T07:41:05.585Z,5.28
2022-10-24T07:43:52.070Z,5.75
2022-10-24T07:46:37.560Z,5.53
2022-10-24T07:49:23.358Z,6.18
2022-10-24T07:52:08.481Z,6.28
2022-10-24T07:54:57.048Z,5.75
2022-10-24T07:57:42.434Z,4.88
2022-10-24T08:00:27.788Z,4.72
2022-10-24T08:03:13.722Z,5.10
2022-10-24T08:05:59.609Z,4.72
2022-10-24T08:08:45.953Z,6.22
2022-10-24T08:11:32.639Z,5.18
2022-10-24T08:14:18.025Z,4.40
2022-10-24T08:17:04.634Z,4.70
2022-10-24T08:19:51.369Z,5.45
2022-10-24T08:22:36.598Z,4.72
2022-10-24T08:25:22.384Z,5.95
2022-10-24T08:28:09.129Z,4.80
2022-10-24T08:30:59.334Z,4.20
2022-10-24T08:33:44.952Z,4.05
2022-10-24T08:36:33.144Z,4.45
2022-10-24T08:39:18.993Z,4.68
2022-10-24T08:42:06.982Z,4.18
2022-10-24T08:44:52.842Z,3.80
2022-10-24T08:47:42.344Z,3.97
2022-10-24T08:50:33.579Z,4.07
2022-10-24T08:53:27.679Z,4.10
2022-10-24T08:56:13.555Z,3.97
2022-10-24T08:59:01.952Z,4.60
2022-10-24T09:01:52.779Z,4.43
2022-10-24T09:04:49.068Z,3.47
2022-10-24T09:07:34.268Z,4.07
2022-10-24T09:10:26.615Z,4.10
2022-10-24T09:13:16.871Z,4.15
2022-10-24T09:16:02.365Z,4.35
2022-10-24T09:18:51.200Z,4.43
2022-10-24T09:21:37.458Z,5.15
2022-10-24T09:24:41.454Z,4.50
2022-10-24T09:27:38.365Z,4.72
2022-10-24T09:30:30.004Z,3.65
2022-10-24T09:33:33.530Z,4.20
2022-10-24T09:36:21.777Z,3.78
2022-10-24T09:39:27.948Z,3.72
2022-10-24T09:42:21.917Z,3.65
2022-10-24T09:45:30.836Z,4.25
2022-10-24T09:48:25.950Z,3.55
2022-10-24T09:51:23.703Z,3.90
2022-10-24T09:54:18.003Z,4.88
2022-10-24T10:00:01.463Z,4.18
2022-10-24T10:02:59.703Z,3.25
2022-10-24T10:05:49.797Z,3.65
2022-10-24T10:08:36.627Z,4.18
2022-10-24T10:11:35.365Z,4.43
2022-10-24T10:14:26.467Z,4.15
2022-10-24T10:17:24.449Z,4.07
2022-10-24T10:20:42.754Z,3.80
2022-10-24T10:23:32.615Z,4.70
2022-10-24T10:26:22.662Z,3.70
2022-10-24T10:29:17.091Z,3.83
2022-10-24T10:32:42.839Z,3.25
2022-10-24T10:36:08.498Z,3.80
2022-10-24T10:39:19.881Z,3.67
2022-10-24T10:42:14.559Z,3.55
2022-10-24T10:45:27.933Z,4.13
2022-10-24T10:48:38.859Z,4.75
2022-10-24T10:51:33.118Z,4.20
2022-10-24T10:54:24.533Z,3.70
2022-10-24T10:57:29.051Z,3.30
2022-10-24T11:00:31.081Z,3.42
2022-10-24T11:03:20.928Z,3.97
2022-10-24T11:06:28.346Z,3.13
2022-10-24T11:09:22.539Z,4.22
2022-10-24T11:12:17.185Z,4.57
2022-10-24T11:15:34.303Z,4.20
2022-10-24T11:18:36.609Z,3.95
2022-10-24T11:21:25.976Z,3.42
2022-10-24T11:24:17.851Z,3.35
2022-10-24T11:27:35.463Z,3.65
2022-10-24T11:30:21.553Z,3.05
2022-10-24T11:33:14.283Z,3.17
2022-10-24T11:36:05.396Z,4.05
2022-10-24T11:39:16.290Z,3.42
2022-10-24T11:42:12.031Z,3.38
2022-10-24T11:45:07.270Z,4.13
2022-10-24T11:47:57.958Z,3.75
2022-10-24T11:51:12.946Z,3.80
2022-10-24T11:54:02.814Z,3.75
2022-10-24T11:57:03.248Z,4.03
2022-10-24T11:59:51.790Z,3.95
2022-10-24T12:02:49.257Z,2.92
2022-10-24T12:05:45.566Z,3.55
2022-10-24T12:08:51.614Z,4.40
2022-10-24T12:12:03.316Z,3.53
2022-10-24T12:15:07.432Z,3.33
2022-10-24T12:18:23.250Z,3.95
2022-10-24T12:21:12.693Z,4.10
2022-10-24T12:24:00.233Z,4.68
2022-10-24T12:26:54.639Z,3.83
2022-10-24T12:29:40.185Z,2.60
2022-10-24T12:32:32.024Z,3.40
2022-10-24T12:35:30.518Z,3.40
2022-10-24T12:38:28.309Z,3.78
2022-10-24T12:41:43.573Z,2.95
2022-10-24T12:44:38.848Z,2.90
2022-10-24T12:47:52.793Z,3.40
2022-10-24T12:50:41.291Z,3.45
2022-10-24T12:53:35.770Z,3.10
2022-10-24T12:56:21.534Z,3.10
2022-10-24T12:59:31.000Z,2.80
2022-10-24T13:02:16.134Z,3.63
2022-10-24T13:05:16.428Z,3.58
2022-10-24T13:08:14.024Z,3.35
2022-10-24T13:11:09.855Z,3.17
2022-10-24T13:14:15.531Z,3.47
2022-10-24T13:17:13.101Z,3.40
2022-10-24T13:20:15.393Z,2.65
2022-10-24T13:23:04.269Z,2.67
2022-10-24T13:25:53.222Z,2.97
2022-10-24T13:28:40.300Z,3.20
2022-10-24T13:31:25.340Z,3.65
2022-10-24T13:34:17.800Z,3.08
2022-10-24T13:37:24.461Z,3.13
2022-10-24T13:40:33.284Z,2.80
2022-10-24T13:43:19.608Z,3.20
2022-10-24T13:46:13.109Z,4.43
2022-10-24T13:49:01.529Z,3.80
2022-10-24T13:51:50.857Z,4.47
2022-10-24T13:54:38.264Z,3.53
2022-10-24T13:57:33.901Z,3.83
2022-10-24T14:00:29.262Z,3.75
2022-10-24T14:03:20.600Z,3.72
2022-10-24T14:06:08.510Z,3.38
2022-10-24T14:09:06.947Z,3.15
2022-10-24T14:11:56.351Z,3.42
2022-10-24T14:14:41.746Z,4.00
2022-10-24T14:17:29.174Z,4.30
2022-10-24T14:20:29.114Z,4.30
2022-10-24T14:23:26.488Z,4.22
2022-10-24T14:26:21.340Z,4.03
2022-10-24T14:29:19.511Z,4.80
2022-10-24T14:32:08.136Z,4.00
2022-10-24T14:34:55.598Z,3.80
2022-10-24T14:37:42.990Z,4.28
2022-10-24T14:40:31.050Z,4.45
2022-10-24T14:43:26.974Z,3.53
2022-10-24T14:46:12.388Z,3.92
2022-10-24T14:49:18.787Z,2.92
2022-10-24T14:52:12.025Z,2.92
2022-10-24T14:55:16.392Z,3.00
2022-10-24T14:58:01.670Z,3.65
2022-10-24T15:00:46.878Z,4.40
2022-10-24T15:03:32.272Z,3.85
2022-10-24T15:06:24.746Z,4.22
2022-10-24T15:09:10.288Z,4.85
2022-10-24T15:12:01.577Z,4.65
2022-10-24T15:14:49.051Z,5.00
2022-10-24T15:17:38.655Z,4.13
2022-10-24T15:20:30.031Z,5.38
2022-10-24T15:23:26.390Z,6.28
2022-10-24T15:26:19.234Z,4.90
2022-10-24T15:29:08.493Z,4.22
2022-10-24T15:34:39.427Z,3.80
2022-10-24T15:37:25.576Z,3.47
2022-10-24T15:40:20.471Z,3.85
2022-10-24T15:43:05.571Z,3.90
2022-10-24T15:45:51.749Z,3.83
2022-10-24T15:48:38.951Z,5.55
2022-10-24T15:51:25.082Z,4.53
2022-10-24T15:54:15.050Z,5.10
2022-10-24T15:57:04.965Z,5.22
2022-10-24T15:59:50.696Z,7.15
2022-10-24T16:02:36.169Z,4.22
2022-10-24T16:05:24.338Z,4.75
2022-10-24T16:08:14.459Z,4.65
2022-10-24T16:10:59.876Z,5.18
2022-10-24T16:13:45.550Z,4.22
2022-10-24T16:16:30.970Z,4.43
2022-10-24T16:19:16.357Z,5.43
2022-10-24T16:22:02.729Z,5.00
2022-10-24T16:24:48.775Z,4.50
2022-10-24T16:27:34.305Z,4.70
2022-10-24T16:30:23.525Z,4.28
2022-10-24T16:33:08.776Z,3.83
2022-10-24T16:35:53.986Z,3.70
2022-10-24T16:38:39.178Z,5.28
2022-10-24T16:41:25.963Z,3.78
2022-10-24T16:44:11.925Z,4.07
2022-10-24T16:46:57.233Z,4.50
2022-10-24T16:49:45.625Z,4.80
2022-10-24T16:52:33.989Z,4.85
2022-10-24T16:55:20.150Z,4.18
2022-10-24T16:58:05.743Z,4.60
2022-10-24T17:00:51.009Z,5.65
2022-10-24T17:03:36.468Z,5.63
2022-10-24T17:06:22.205Z,5.65
2022-10-24T17:09:07.723Z,3.85
2022-10-24T17:11:56.322Z,6.93
2022-10-24T17:14:41.477Z,6.07
2022-10-24T17:17:26.749Z,4.75
2022-10-24T17:20:13.053Z,5.93
2022-10-24T17:23:02.844Z,3.88
2022-10-24T17:25:51.273Z,3.35
2022-10-24T17:28:36.526Z,4.55
2022-10-24T17:31:22.026Z,6.57
2022-10-24T17:34:07.320Z,5.07
2022-10-24T17:36:59.422Z,3.50
2022-10-24T17:39:50.071Z,4.13
2022-10-24T17:42:35.451Z,4.05
2022-10-24T17:45:23.378Z,3.75
2022-10-24T17:48:09.939Z,5.15
2022-10-24T17:50:56.495Z,4.25
2022-10-24T17:53:41.633Z,4.00
2022-10-24T17:56:27.073Z,4.07
2022-10-24T17:59:14.565Z,3.88
2022-10-24T18:01:59.975Z,3.97
2022-10-24T18:04:45.423Z,3.90
2022-10-24T18:07:30.614Z,5.13
2022-10-24T18:10:17.388Z,6.53
2022-10-24T18:13:03.080Z,3.72
2022-10-24T18:15:48.230Z,3.80
2022-10-24T18:18:33.798Z,6.22
2022-10-24T18:21:22.271Z,4.18
2022-10-24T18:24:07.991Z,3.53
2022-10-24T18:26:53.118Z,3.33
2022-10-24T18:29:38.630Z,5.68
2022-10-24T18:32:23.875Z,4.30
2022-10-24T18:35:09.152Z,3.70
2022-10-24T18:37:54.428Z,2.85
2022-10-24T18:40:39.831Z,5.20
2022-10-24T18:43:25.104Z,4.50
2022-10-24T18:46:11.732Z,3.33
2022-10-24T18:48:57.467Z,3.65
2022-10-24T18:51:52.087Z,3.70
2022-10-24T18:54:44.986Z,4.72
2022-10-24T18:57:32.803Z,3.50
2022-10-24T19:00:20.981Z,2.60
2022-10-24T19:03:30.772Z,3.67
2022-10-24T19:09:17.403Z,2.65
2022-10-24T19:12:03.419Z,4.70
2022-10-24T19:14:48.689Z,4.57
2022-10-24T19:17:34.059Z,3.42
2022-10-24T19:20:21.847Z,2.83
2022-10-24T19:23:06.943Z,2.65
2022-10-24T19:25:52.927Z,3.70
2022-10-24T19:28:38.358Z,4.45
2022-10-24T19:31:23.600Z,4.60
2022-10-24T19:34:10.160Z,3.60
2022-10-24T19:36:55.834Z,3.85
2022-10-24T19:39:41.552Z,4.03
2022-10-24T19:42:27.059Z,4.63
2022-10-24T19:45:12.453Z,3.38
2022-10-24T19:47:58.113Z,3.10
2022-10-24T19:50:44.390Z,4.00
2022-10-24T19:53:33.625Z,3.38
2022-10-24T19:59:12.245Z,5.97
2022-10-24T20:04:48.137Z,4.53
2022-10-24T20:07:34.856Z,4.05
2022-10-24T20:10:24.071Z,3.42
2022-10-24T20:13:09.222Z,4.45
2022-10-24T20:15:56.489Z,3.65
2022-10-24T20:18:43.075Z,3.40
2022-10-24T20:21:28.628Z,3.47
2022-10-24T20:24:13.786Z,3.40
2022-10-24T20:27:00.592Z,3.03
2022-10-24T20:29:45.840Z,4.78
2022-10-24T20:32:31.483Z,3.92
2022-10-24T20:35:16.923Z,3.88
2022-10-24T20:38:02.939Z,4.10
2022-10-24T20:40:48.239Z,3.45
2022-10-24T20:43:33.462Z,3.70
2022-10-24T20:46:18.546Z,3.47
2022-10-24T20:49:04.374Z,3.53
2022-10-24T20:51:49.958Z,3.85
2022-10-24T20:54:35.098Z,4.07
2022-10-24T20:57:20.717Z,3.33
2022-10-24T21:00:06.779Z,3.30
2022-10-24T21:02:52.198Z,3.55
2022-10-24T21:05:37.441Z,3.95
2022-10-24T21:08:22.714Z,3.00
2022-10-24T21:11:11.026Z,3.25
2022-10-24T21:13:59.139Z,3.75
2022-10-24T21:16:44.616Z,3.60
2022-10-24T21:19:30.404Z,4.57
2022-10-24T21:22:15.506Z,4.50
2022-10-24T21:25:00.834Z,5.15
2022-10-24T21:27:46.545Z,7.07
2022-10-24T21:30:32.151Z,6.93
2022-10-24T21:33:17.713Z,4.38
2022-10-24T21:36:11.443Z,3.88
2022-10-24T21:38:58.041Z,3.83
2022-10-24T21:41:45.231Z,3.72
2022-10-24T21:44:32.352Z,3.38
2022-10-24T21:47:17.806Z,4.05
2022-10-24T21:50:03.368Z,4.60
2022-10-24T21:52:49.099Z,3.30
2022-10-24T21:55:34.330Z,3.70
2022-10-24T21:58:19.608Z,3.78
2022-10-24T22:01:19.807Z,3.55
2022-10-24T22:04:06.183Z,3.65
2022-10-24T22:06:53.153Z,3.92
2022-10-24T22:09:38.344Z,3.72
2022-10-24T22:12:23.637Z,4.68
2022-10-24T22:15:09.510Z,5.13
2022-10-24T22:17:55.190Z,6.10
2022-10-24T22:20:40.431Z,5.30
2022-10-24T22:23:25.893Z,5.07
2022-10-24T22:26:11.983Z,4.75
2022-10-24T22:28:58.025Z,3.78
2022-10-24T22:31:44.263Z,4.40
2022-10-24T22:34:30.100Z,4.38
2022-10-24T22:37:24.637Z,5.18
2022-10-24T22:40:30.796Z,4.82
2022-10-24T22:43:16.320Z,4.65
2022-10-24T22:46:51.571Z,4.65
2022-10-24T22:50:07.178Z,4.55
2022-10-24T22:52:53.951Z,3.85
2022-10-24T22:55:47.860Z,3.45
2022-10-24T22:58:33.511Z,3.15
2022-10-24T23:01:37.599Z,3.90
2022-10-24T23:04:33.972Z,3.75
2022-10-24T23:07:27.798Z,3.90
2022-10-24T23:10:20.591Z,3.70
2022-10-24T23:13:06.632Z,4.13
2022-10-24T23:15:55.657Z,5.47
2022-10-24T23:18:41.459Z,4.50
2022-10-24T23:21:41.572Z,3.80
2022-10-24T23:24:28.384Z,4.72
2022-10-24T23:27:13.538Z,4.60
2022-10-24T23:29:59.303Z,3.90
2022-10-24T23:32:45.593Z,4.20
2022-10-24T23:35:31.533Z,4.05
2022-10-24T23:38:17.318Z,4.57
2022-10-24T23:41:03.064Z,4.15
2022-10-24T23:43:48.989Z,4.30
2022-10-24T23:46:38.100Z,4.28
2022-10-24T23:49:32.844Z,4.00
2022-10-24T23:52:28.595Z,4.25
2022-10-24T23:55:16.770Z,4.03
2022-10-24T23:58:02.341Z,4.20
